Time;durP1;ratioP1;P1;durP2;ratioP2;P2;SDS_P1;SDS_P2;PMS_P1;PMS_P2;Temp;Humidity;BMP_temperature;BMP_pressure;BME280_temperature;BME280_humidity;BME280_pressure;Samples;Min_cycle;Max_cycle;Signal;HPM_P1;HPM_P2
2022/11/01 00:00:30;;;;;;;3.20;0.70;;;;;;;17.81;100.00;97819.75;7397721;19;20352;-62
2022/11/01 00:02:56;;;;;;;1.83;1.25;;;;;;;18.03;100.00;97818.81;7397965;19;20014;-62
2022/11/01 00:05:22;;;;;;;5.43;1.98;;;;;;;18.05;100.00;97821.81;7397559;19;20015;-62
2022/11/01 00:07:48;;;;;;;4.72;0.47;;;;;;;18.08;100.00;97809.38;7400115;19;20214;-62
2022/11/01 00:10:14;;;;;;;0.40;0.15;;;;;;;18.00;100.00;97803.06;7399285;19;20011;-62
2022/11/01 00:12:40;;;;;;;0.98;0.55;;;;;;;18.01;100.00;97803.81;7395228;19;20015;-63
2022/11/01 00:15:07;;;;;;;1.60;0.82;;;;;;;18.01;100.00;97801.75;7397483;19;20011;-63
2022/11/01 00:17:34;;;;;;;2.75;0.77;;;;;;;18.06;100.00;97800.75;7398105;19;20011;-62
2022/11/01 00:20:00;;;;;;;1.23;0.47;;;;;;;18.21;100.00;97799.13;7394260;19;20015;-63
2022/11/01 00:22:26;;;;;;;2.83;1.38;;;;;;;18.12;100.00;97787.19;7392979;19;20040;-63
2022/11/01 00:24:52;;;;;;;0.95;0.30;;;;;;;18.14;100.00;97780.97;7393789;19;20022;-63
2022/11/01 00:27:19;;;;;;;5.78;0.82;;;;;;;18.15;100.00;97779.63;7395624;19;20325;-63
2022/11/01 00:29:45;;;;;;;2.47;0.40;;;;;;;18.13;100.00;97776.66;7395972;19;20010;-62
2022/11/01 00:32:11;;;;;;;2.05;0.60;;;;;;;17.91;100.00;97772.72;7394861;19;20014;-62
2022/11/01 00:34:37;;;;;;;1.10;0.55;;;;;;;18.08;100.00;97769.22;7393008;19;20337;-61
2022/11/01 00:37:03;;;;;;;1.77;0.70;;;;;;;18.12;100.00;97753.38;7394963;19;20017;-61
2022/11/01 00:39:29;;;;;;;4.25;0.38;;;;;;;17.88;100.00;97761.88;7396847;19;20010;-62
2022/11/01 00:41:55;;;;;;;2.65;0.75;;;;;;;18.13;100.00;97751.31;7394587;19;20010;-61
2022/11/01 00:44:21;;;;;;;4.68;0.80;;;;;;;18.21;100.00;97751.25;7394983;19;20010;-62
2022/11/01 00:46:47;;;;;;;9.02;0.93;;;;;;;18.21;100.00;97749.19;7395085;19;20010;-62
2022/11/01 00:49:14;;;;;;;0.77;0.32;;;;;;;18.16;100.00;97745.28;7394166;19;20016;-63
2022/11/01 00:51:40;;;;;;;1.23;0.77;;;;;;;18.09;100.00;97737.63;7393791;19;20347;-63
2022/11/01 00:54:06;;;;;;;2.95;0.30;;;;;;;18.06;100.00;97738.78;7394286;19;20740;-63
2022/11/01 00:56:32;;;;;;;0.75;0.30;;;;;;;17.96;100.00;97734.38;7393869;19;20388;-63
2022/11/01 00:58:58;;;;;;;2.45;0.45;;;;;;;17.96;100.00;97735.13;7394666;19;20014;-63
2022/11/01 01:01:24;;;;;;;1.98;0.70;;;;;;;17.87;100.00;97727.31;7394366;19;20017;-64
2022/11/01 01:03:50;;;;;;;2.85;0.68;;;;;;;17.85;100.00;97729.22;7392828;19;20502;-63
2022/11/01 01:06:17;;;;;;;0.82;0.50;;;;;;;17.79;100.00;97721.03;7393921;19;20013;-64
2022/11/01 01:08:43;;;;;;;2.00;0.40;;;;;;;17.74;100.00;97724.06;7394207;19;20018;-64
2022/11/01 01:11:09;;;;;;;0.40;0.17;;;;;;;17.79;100.00;97726.66;7394481;19;20684;-62
2022/11/01 01:13:35;;;;;;;4.43;1.23;;;;;;;17.92;100.00;97720.72;7395967;19;20010;-62
2022/11/01 01:16:09;;;;;;;3.20;0.98;;;;;;;18.07;100.00;97717.00;7395829;19;20466;-62
2022/11/01 01:18:36;;;;;;;0.55;0.20;;;;;;;18.17;100.00;97709.38;7397466;19;20007;-62
2022/11/01 01:21:04;;;;;;;1.17;0.50;;;;;;;18.16;100.00;97711.47;7393882;19;20019;-62
2022/11/01 01:23:30;;;;;;;4.78;1.20;;;;;;;18.03;100.00;97703.34;7392311;19;20345;-63
2022/11/01 01:25:56;;;;;;;1.50;0.45;;;;;;;18.02;100.00;97704.66;7393104;19;20007;-62
2022/11/01 01:28:23;;;;;;;1.40;0.73;;;;;;;18.09;100.00;97703.84;7398024;19;20018;-62
2022/11/01 01:30:49;;;;;;;1.50;0.63;;;;;;;18.09;100.00;97698.19;7393482;19;20676;-62
2022/11/01 01:33:15;;;;;;;1.60;0.82;;;;;;;18.09;100.00;97703.84;7392032;19;20445;-61
2022/11/01 01:35:41;;;;;;;5.40;0.82;;;;;;;18.01;100.00;97700.34;7391166;19;20014;-62
2022/11/01 01:38:07;;;;;;;1.63;0.20;;;;;;;18.09;100.00;97703.06;7396489;19;20017;-61
2022/11/01 01:40:33;;;;;;;0.75;0.35;;;;;;;18.14;100.00;97700.03;7396889;19;20003;-61
2022/11/01 01:43:00;;;;;;;2.70;0.30;;;;;;;18.12;100.00;97699.13;7393203;19;20041;-61
2022/11/01 01:45:33;;;;;;;1.98;0.50;;;;;;;18.10;100.00;97696.84;7392544;19;20066;-60
2022/11/01 01:48:06;;;;;;;0.47;0.35;;;;;;;18.06;100.00;97693.72;7394669;19;20018;-60
2022/11/01 01:50:39;;;;;;;3.97;0.28;;;;;;;18.08;100.00;97704.41;7391678;19;20027;-60
2022/11/01 01:53:22;;;;;;;1.25;0.30;;;;;;;18.02;100.00;97699.00;7392357;19;20006;-60
2022/11/01 01:55:56;;;;;;;0.73;0.52;;;;;;;18.19;100.00;97701.09;7389054;19;20023;-60
2022/11/01 01:58:38;;;;;;;7.28;1.13;;;;;;;18.14;100.00;97694.41;7396675;19;20010;-60
2022/11/01 02:01:04;;;;;;;1.42;0.32;;;;;;;18.04;100.00;97693.53;7392488;19;20084;-60
2022/11/01 02:03:32;;;;;;;0.45;0.22;;;;;;;17.89;100.00;97682.44;7390972;19;20466;-60
2022/11/01 02:06:06;;;;;;;1.58;0.77;;;;;;;17.79;100.00;97692.88;7391880;19;20021;-60
2022/11/01 02:08:34;;;;;;;0.80;0.28;;;;;;;17.57;100.00;97696.63;7396185;19;20026;-60
2022/11/01 02:11:02;;;;;;;0.20;0.20;;;;;;;17.63;100.00;97697.13;7396294;19;20351;-60
2022/11/01 02:13:30;;;;;;;1.83;0.30;;;;;;;17.65;100.00;97688.84;7390810;19;20006;-59
2022/11/01 02:16:16;;;;;;;1.13;0.10;;;;;;;17.63;100.00;97690.78;7385981;19;20014;-60
2022/11/01 02:18:51;;;;;;;3.38;0.50;;;;;;;17.56;100.00;97691.56;7391469;19;20019;-59
2022/11/01 02:21:20;;;;;;;2.05;0.40;;;;;;;17.45;100.00;97695.56;7389375;19;20010;-60
2022/11/01 02:24:14;;;;;;;1.13;0.30;;;;;;;17.47;100.00;97695.75;7391508;19;20006;-60
2022/11/01 02:26:59;;;;;;;0.30;0.28;;;;;;;17.53;100.00;97699.09;7389875;19;20020;-60
2022/11/01 02:29:55;;;;;;;0.80;0.50;;;;;;;17.55;100.00;97704.16;7390963;19;20018;-59
2022/11/01 02:32:23;;;;;;;2.90;1.10;;;;;;;17.52;100.00;97708.84;7390840;19;20058;-60
2022/11/01 02:34:55;;;;;;;1.17;0.40;;;;;;;17.50;100.00;97705.13;7390126;19;20771;-60
2022/11/01 02:37:42;;;;;;;0.10;0.10;;;;;;;17.53;100.00;97716.00;7393058;19;20011;-61
2022/11/01 02:40:20;;;;;;;3.05;0.30;;;;;;;17.42;100.00;97727.66;7393310;19;20043;-60
2022/11/01 02:42:51;;;;;;;2.92;0.40;;;;;;;17.59;100.00;97724.94;7391518;19;20040;-60
2022/11/01 02:45:28;;;;;;;0.10;0.10;;;;;;;17.78;100.00;97719.50;7389307;19;20477;-59
2022/11/01 02:47:56;;;;;;;1.30;0.93;;;;;;;17.75;100.00;97737.59;7391196;19;20037;-58
2022/11/01 02:50:25;;;;;;;0.20;0.20;;;;;;;17.84;100.00;97734.13;7390257;19;20034;-59
2022/11/01 02:52:52;;;;;;;0.73;0.15;;;;;;;17.88;100.00;97739.34;7390279;19;20042;-59
2022/11/01 02:55:32;;;;;;;0.30;0.20;;;;;;;17.86;100.00;97737.13;7388355;19;20011;-59
2022/11/01 02:58:12;;;;;;;0.30;0.10;;;;;;;17.89;100.00;97735.94;7390793;19;20010;-59
2022/11/01 03:00:38;;;;;;;1.17;0.55;;;;;;;17.89;100.00;97735.94;7389201;19;20022;-59
2022/11/01 03:03:32;;;;;;;1.10;0.20;;;;;;;17.95;100.00;97733.63;7391554;19;20011;-59
2022/11/01 03:05:58;;;;;;;3.22;0.82;;;;;;;17.90;100.00;97745.91;7389243;19;20027;-59
2022/11/01 03:08:31;;;;;;;2.22;0.45;;;;;;;17.81;100.00;97746.53;7394281;19;20038;-59
2022/11/01 03:11:00;;;;;;;0.68;0.10;;;;;;;17.77;100.00;97746.19;7395130;19;20021;-59
2022/11/01 03:13:55;;;;;;;1.25;0.30;;;;;;;17.76;100.00;97744.69;7391428;19;20050;-59
2022/11/01 03:16:30;;;;;;;1.42;0.68;;;;;;;17.75;100.00;97746.03;7390280;19;20431;-59
2022/11/01 03:19:13;;;;;;;0.43;0.20;;;;;;;17.63;100.00;97752.69;7390708;19;20028;-59
2022/11/01 03:21:45;;;;;;;0.43;0.20;;;;;;;17.80;100.00;97758.38;7388479;19;20043;-59
2022/11/01 03:24:27;;;;;;;2.35;0.82;;;;;;;17.81;100.00;97757.03;7388991;19;20011;-60
2022/11/01 03:27:24;;;;;;;0.75;0.30;;;;;;;17.78;100.00;97758.22;7389615;19;20400;-60
2022/11/01 03:29:57;;;;;;;4.97;0.40;;;;;;;17.75;100.00;97759.34;7389932;19;20014;-59
2022/11/01 03:32:33;;;;;;;0.68;0.45;;;;;;;17.76;100.00;97772.13;7389868;19;20103;-60
2022/11/01 03:35:02;;;;;;;0.65;0.57;;;;;;;17.65;100.00;97770.50;7388795;19;20074;-60
2022/11/01 03:37:31;;;;;;;3.60;0.10;;;;;;;17.67;100.00;97787.53;7392710;19;20018;-59
2022/11/01 03:40:02;;;;;;;0.43;0.43;;;;;;;17.73;100.00;97795.78;7391479;19;20373;-59
2022/11/01 03:42:29;;;;;;;3.60;0.47;;;;;;;17.76;100.00;97795.38;7389809;19;20478;-59
2022/11/01 03:45:03;;;;;;;0.95;0.40;;;;;;;17.78;100.00;97806.81;7389377;19;20021;-60
2022/11/01 03:47:29;;;;;;;0.13;0.03;;;;;;;17.65;100.00;97812.72;7392434;19;20014;-59
2022/11/01 03:50:17;;;;;;;0.10;0.00;;;;;;;17.57;100.00;97828.91;7387750;19;20462;-59
2022/11/01 03:52:43;;;;;;;1.20;0.50;;;;;;;17.50;100.00;97835.31;7388363;19;20101;-59
2022/11/01 03:55:19;;;;;;;0.00;0.00;;;;;;;17.59;100.00;97833.97;7387564;19;20029;-59
2022/11/01 03:57:50;;;;;;;0.40;0.30;;;;;;;17.44;100.00;97854.47;7391069;19;20018;-59
2022/11/01 04:00:22;;;;;;;0.17;0.17;;;;;;;17.41;100.00;97867.63;7388948;19;20011;-59
2022/11/01 04:02:50;;;;;;;0.40;0.40;;;;;;;17.48;100.00;97873.81;7388514;19;20002;-60
2022/11/01 04:05:17;;;;;;;1.00;0.50;;;;;;;17.29;100.00;97877.06;7388382;19;20042;-61
2022/11/01 04:07:44;;;;;;;0.10;0.00;;;;;;;17.27;100.00;97886.09;7391756;19;20018;-63
2022/11/01 04:10:11;;;;;;;0.40;0.28;;;;;;;17.24;100.00;97897.72;7391087;19;20337;-63
2022/11/01 04:12:37;;;;;;;0.20;0.10;;;;;;;17.24;100.00;97906.16;7388829;19;20011;-63
2022/11/01 04:21:09;;;;;;;0.65;0.10;;;;;;;17.39;100.00;97925.78;7388549;19;20762;-63
2022/11/01 04:23:35;;;;;;;0.00;0.00;;;;;;;17.28;100.00;97931.84;7388581;19;20086;-63
2022/11/01 04:26:02;;;;;;;0.10;0.00;;;;;;;17.25;100.00;97941.41;7387444;19;20080;-63
2022/11/01 04:28:28;;;;;;;0.10;0.00;;;;;;;17.25;100.00;97933.72;7392383;19;20030;-63
2022/11/01 04:30:55;;;;;;;0.13;0.13;;;;;;;17.25;100.00;97955.47;7388707;19;20022;-63
2022/11/01 04:33:21;;;;;;;1.90;0.10;;;;;;;17.28;100.00;97962.81;7387638;19;20031;-62
2022/11/01 04:35:47;;;;;;;2.13;0.28;;;;;;;17.35;100.00;97962.75;7386804;19;20007;-62
2022/11/01 04:38:14;;;;;;;0.10;0.00;;;;;;;17.31;100.00;97975.72;7394813;19;20370;-63
2022/11/01 04:40:41;;;;;;;0.00;0.00;;;;;;;17.33;100.00;97981.53;7399197;19;20010;-62
2022/11/01 04:43:08;;;;;;;0.03;0.03;;;;;;;17.26;100.00;97979.50;7395173;19;20030;-63
2022/11/01 04:45:34;;;;;;;0.68;0.20;;;;;;;17.15;100.00;97989.06;7395141;19;20010;-62
2022/11/01 04:48:01;;;;;;;0.10;0.00;;;;;;;17.19;100.00;97985.88;7398645;19;20035;-62
2022/11/01 04:50:27;;;;;;;4.50;0.43;;;;;;;17.11;100.00;97990.75;7395822;19;20014;-61
2022/11/01 04:52:54;;;;;;;0.00;0.00;;;;;;;17.02;100.00;98005.44;7393765;19;20022;-62
2022/11/01 04:55:20;;;;;;;0.30;0.20;;;;;;;16.76;100.00;98012.19;7392847;19;20007;-63
2022/11/01 04:57:46;;;;;;;0.00;0.00;;;;;;;16.86;100.00;98013.13;7396358;19;20107;-62
2022/11/01 05:00:12;;;;;;;0.10;0.10;;;;;;;16.93;100.00;98025.69;7393593;19;20021;-62
2022/11/01 05:02:39;;;;;;;0.00;0.00;;;;;;;16.87;100.00;98044.81;7394302;19;20018;-61
2022/11/01 05:05:07;;;;;;;0.10;0.00;;;;;;;16.89;100.00;98037.28;7394527;19;20015;-61
2022/11/01 05:07:34;;;;;;;0.45;0.10;;;;;;;16.87;100.00;98056.06;7395909;19;20380;-61
2022/11/01 05:10:00;;;;;;;0.30;0.15;;;;;;;16.76;100.00;98062.03;7396087;19;20106;-61
2022/11/01 05:12:27;;;;;;;0.10;0.00;;;;;;;16.72;100.00;98062.41;7393447;19;20364;-61
2022/11/01 05:14:53;;;;;;;0.35;0.05;;;;;;;16.51;100.00;98085.06;7395746;19;20017;-62
2022/11/01 05:17:19;;;;;;;0.55;0.30;;;;;;;16.38;100.00;98085.19;7396679;19;20010;-61
2022/11/01 05:19:45;;;;;;;0.25;0.25;;;;;;;16.24;100.00;98095.06;7394576;19;20036;-61
2022/11/01 05:22:11;;;;;;;0.10;0.10;;;;;;;16.16;100.00;98085.84;7393533;19;20021;-61
2022/11/01 05:24:37;;;;;;;0.17;0.17;;;;;;;15.94;100.00;98109.72;7394040;19;20038;-61
2022/11/01 05:27:03;;;;;;;0.10;0.00;;;;;;;15.79;100.00;98103.28;7395013;19;20066;-61
2022/11/01 05:29:30;;;;;;;0.10;0.10;;;;;;;15.71;100.00;98122.16;7392592;19;20023;-60
2022/11/01 05:31:56;;;;;;;0.10;0.00;;;;;;;15.58;100.00;98130.66;7392794;19;20011;-60
2022/11/01 05:34:22;;;;;;;0.25;0.25;;;;;;;15.47;100.00;98133.78;7392967;19;20022;-60
2022/11/01 05:36:48;;;;;;;0.10;0.10;;;;;;;15.43;100.00;98144.56;7394351;19;20408;-60
2022/11/01 05:39:14;;;;;;;0.40;0.30;;;;;;;15.25;100.00;98143.50;7391780;19;20030;-60
2022/11/01 05:41:40;;;;;;;0.95;0.90;;;;;;;15.13;100.00;98157.06;7392769;19;20011;-60
2022/11/01 05:44:07;;;;;;;0.17;0.03;;;;;;;15.09;100.00;98150.28;7391200;19;20010;-61
2022/11/01 05:46:33;;;;;;;0.20;0.17;;;;;;;15.01;100.00;98167.03;7392680;19;20463;-61
2022/11/01 05:48:59;;;;;;;0.10;0.10;;;;;;;14.94;100.00;98167.72;7391580;19;20018;-61
2022/11/01 05:51:25;;;;;;;0.10;0.10;;;;;;;14.93;100.00;98177.44;7393085;19;20010;-61
2022/11/01 05:53:51;;;;;;;0.47;0.40;;;;;;;14.85;100.00;98192.66;7393022;19;20011;-61
2022/11/01 05:56:17;;;;;;;0.10;0.00;;;;;;;14.78;100.00;98210.91;7390639;19;20011;-61
2022/11/01 05:58:45;;;;;;;0.10;0.10;;;;;;;14.84;100.00;98203.13;7393499;19;20036;-61
2022/11/01 06:01:12;;;;;;;0.10;0.10;;;;;;;14.76;100.00;98216.31;7391154;19;20018;-61
2022/11/01 06:03:38;;;;;;;0.10;0.00;;;;;;;14.81;100.00;98215.41;7392353;19;20087;-61
2022/11/01 06:06:04;;;;;;;0.98;0.68;;;;;;;14.77;100.00;98217.06;7391963;19;20010;-60
2022/11/01 06:08:31;;;;;;;0.30;0.20;;;;;;;14.73;100.00;98211.78;7395392;19;20641;-61
2022/11/01 06:11:04;;;;;;;0.20;0.20;;;;;;;14.84;100.00;98214.34;7396186;19;20499;-61
2022/11/01 06:13:31;;;;;;;3.70;0.45;;;;;;;14.88;100.00;98220.34;7392035;19;20014;-60
2022/11/01 06:16:02;;;;;;;0.10;0.10;;;;;;;14.89;100.00;98215.50;7388127;19;20010;-61
2022/11/01 06:18:28;;;;;;;1.35;0.10;;;;;;;14.84;100.00;98219.94;7396906;19;20463;-60
2022/11/01 06:20:56;;;;;;;0.10;0.10;;;;;;;14.79;100.00;98223.63;7391174;19;20440;-61
2022/11/01 06:23:22;;;;;;;0.10;0.00;;;;;;;14.72;100.00;98223.53;7392374;19;20478;-61
2022/11/01 06:25:48;;;;;;;0.38;0.38;;;;;;;14.69;100.00;98216.97;7391615;19;20352;-60
2022/11/01 06:28:15;;;;;;;0.60;0.22;;;;;;;14.64;100.00;98222.72;7389674;19;20471;-61
2022/11/01 06:30:42;;;;;;;0.10;0.10;;;;;;;14.58;100.00;98225.63;7390241;19;20359;-60
2022/11/01 06:33:09;;;;;;;0.47;0.47;;;;;;;14.46;100.00;98229.97;7390877;19;20015;-61
2022/11/01 06:35:36;;;;;;;1.13;0.32;;;;;;;14.40;100.00;98229.34;7390205;19;20111;-61
2022/11/01 06:38:05;;;;;;;0.10;0.10;;;;;;;14.35;100.00;98233.00;7395053;19;20022;-61
2022/11/01 06:40:33;;;;;;;0.10;0.10;;;;;;;14.30;100.00;98228.25;7394994;19;20007;-60
2022/11/01 06:43:00;;;;;;;7.88;0.50;;;;;;;14.32;100.00;98226.41;7391296;19;20070;-62
2022/11/01 06:45:27;;;;;;;0.17;0.17;;;;;;;14.39;100.00;98225.78;7390436;19;20010;-61
2022/11/01 06:47:54;;;;;;;0.10;0.10;;;;;;;14.37;100.00;98236.00;7394796;19;20011;-61
2022/11/01 06:50:20;;;;;;;1.88;1.02;;;;;;;14.32;100.00;98250.88;7390522;19;20015;-61
2022/11/01 06:52:46;;;;;;;0.10;0.10;;;;;;;14.30;100.00;98250.66;7391510;19;20041;-61
2022/11/01 06:55:12;;;;;;;3.08;0.38;;;;;;;14.25;100.00;98243.09;7390703;19;20363;-60
2022/11/01 06:57:38;;;;;;;0.45;0.45;;;;;;;14.36;100.00;98254.09;7393629;19;20011;-61
2022/11/01 07:00:06;;;;;;;0.73;0.73;;;;;;;14.63;100.00;98249.22;7389222;19;20343;-61
2022/11/01 07:02:32;;;;;;;0.10;0.10;;;;;;;14.74;100.00;98249.72;7390943;19;20011;-61
2022/11/01 07:04:58;;;;;;;0.57;0.17;;;;;;;14.77;100.00;98256.31;7391304;19;20014;-61
2022/11/01 07:07:24;;;;;;;0.20;0.20;;;;;;;14.93;100.00;98258.72;7392790;19;20365;-61
2022/11/01 07:09:50;;;;;;;8.90;0.70;;;;;;;15.03;100.00;98254.16;7390883;19;20006;-61
2022/11/01 07:12:16;;;;;;;0.20;0.13;;;;;;;15.15;100.00;98255.41;7390219;19;20018;-60
2022/11/01 07:14:43;;;;;;;2.67;0.25;;;;;;;15.17;100.00;98246.44;7392262;19;20019;-60
2022/11/01 07:17:09;;;;;;;4.47;1.05;;;;;;;15.20;100.00;98248.91;7391371;19;20024;-60
2022/11/01 07:19:35;;;;;;;0.43;0.40;;;;;;;15.25;100.00;98252.13;7387696;19;20010;-60
2022/11/01 07:22:01;;;;;;;0.10;0.00;;;;;;;15.29;100.00;98247.66;7389863;19;20017;-61
2022/11/01 07:24:27;;;;;;;1.00;0.40;;;;;;;15.32;100.00;98257.06;7390896;19;20046;-61
2022/11/01 07:26:53;;;;;;;0.20;0.20;;;;;;;15.37;100.00;98248.50;7390442;19;20011;-61
2022/11/01 07:29:19;;;;;;;2.90;0.68;;;;;;;15.36;100.00;98241.38;7389557;19;20416;-60
2022/11/01 07:31:46;;;;;;;3.13;0.20;;;;;;;15.34;100.00;98246.03;7389693;19;20033;-61
2022/11/01 07:34:12;;;;;;;0.17;0.10;;;;;;;15.23;100.00;98243.50;7389438;19;20019;-60
2022/11/01 07:36:38;;;;;;;0.30;0.10;;;;;;;15.24;100.00;98242.22;7390933;19;20007;-61
2022/11/01 07:39:04;;;;;;;0.20;0.13;;;;;;;15.31;100.00;98247.16;7390252;19;20015;-60
2022/11/01 07:41:31;;;;;;;2.05;0.88;;;;;;;15.30;100.00;98254.03;7389737;19;20011;-61
2022/11/01 07:43:57;;;;;;;1.75;0.50;;;;;;;15.32;100.00;98245.84;7388984;19;20014;-60
2022/11/01 07:46:23;;;;;;;0.85;0.65;;;;;;;15.29;100.00;98252.56;7388656;19;20426;-61
2022/11/01 07:48:50;;;;;;;0.65;0.32;;;;;;;15.41;100.00;98253.78;7389037;19;20011;-60
2022/11/01 07:51:17;;;;;;;0.10;0.10;;;;;;;15.45;100.00;98254.22;7389122;19;20014;-60
2022/11/01 07:53:43;;;;;;;6.75;1.08;;;;;;;15.63;100.00;98256.06;7389832;19;20082;-61
2022/11/01 07:56:09;;;;;;;0.10;0.10;;;;;;;15.68;100.00;98266.41;7386877;19;20118;-61
2022/11/01 07:58:35;;;;;;;0.90;0.30;;;;;;;15.74;100.00;98269.81;7392758;19;20011;-61
2022/11/01 08:01:01;;;;;;;0.15;0.15;;;;;;;15.79;100.00;98271.69;7386970;19;20019;-61
2022/11/01 08:03:27;;;;;;;8.38;0.73;;;;;;;15.72;100.00;98267.53;7387030;19;20011;-61
2022/11/01 08:05:54;;;;;;;0.57;0.55;;;;;;;15.78;100.00;98273.03;7389061;19;20017;-61
2022/11/01 08:08:21;;;;;;;0.32;0.17;;;;;;;15.91;100.00;98275.75;7392255;19;20078;-61
2022/11/01 08:10:47;;;;;;;1.23;0.30;;;;;;;16.03;100.00;98279.00;7392712;19;20015;-61
2022/11/01 08:13:17;;;;;;;2.85;0.85;;;;;;;15.99;100.00;98273.72;7393214;19;20455;-64
2022/11/01 08:15:45;;;;;;;0.68;0.28;;;;;;;15.88;100.00;98274.03;7398334;19;20360;-64
2022/11/01 08:18:11;;;;;;;0.38;0.30;;;;;;;15.96;100.00;98291.66;7398853;19;20011;-64
2022/11/01 08:20:38;;;;;;;2.65;0.73;;;;;;;16.03;100.00;98279.75;7394099;19;20007;-64
2022/11/01 08:23:04;;;;;;;4.75;0.63;;;;;;;16.10;100.00;98284.66;7395297;19;20018;-64
2022/11/01 08:25:30;;;;;;;0.00;0.00;;;;;;;16.21;100.00;98278.75;7395602;19;20010;-64
2022/11/01 08:28:17;;;;;;;0.30;0.30;;;;;;;16.14;100.00;98281.50;7398165;19;20347;-64
2022/11/01 08:30:45;;;;;;;0.22;0.22;;;;;;;16.42;100.00;98293.47;7395785;19;20011;-65
2022/11/01 08:33:11;;;;;;;0.10;0.10;;;;;;;16.45;100.00;98303.63;7395313;19;20752;-65
2022/11/01 08:35:37;;;;;;;0.10;0.00;;;;;;;16.48;100.00;98302.50;7393459;19;20015;-64
2022/11/01 08:38:04;;;;;;;0.10;0.00;;;;;;;16.47;100.00;98297.44;7398651;19;20010;-64
2022/11/01 08:40:32;;;;;;;0.10;0.10;;;;;;;16.34;100.00;98306.75;7398251;19;20044;-64
2022/11/01 08:42:58;;;;;;;0.45;0.40;;;;;;;16.48;100.00;98316.56;7395395;19;20014;-64
2022/11/01 08:45:25;;;;;;;0.10;0.05;;;;;;;16.88;100.00;98316.22;7394853;19;20027;-63
2022/11/01 08:48:02;;;;;;;0.10;0.10;;;;;;;16.94;100.00;98302.75;7397316;19;20410;-64
2022/11/01 08:50:29;;;;;;;0.10;0.10;;;;;;;16.84;100.00;98322.22;7392755;19;20010;-63
2022/11/01 08:52:55;;;;;;;2.38;0.20;;;;;;;16.82;100.00;98324.06;7394076;19;20011;-64
2022/11/01 08:55:22;;;;;;;0.10;0.05;;;;;;;17.05;100.00;98324.91;7393532;19;20022;-63
2022/11/01 08:57:48;;;;;;;2.47;0.43;;;;;;;17.17;100.00;98337.34;7394084;19;20017;-64
2022/11/01 09:00:15;;;;;;;1.58;0.30;;;;;;;17.25;100.00;98343.75;7394444;19;20082;-64
2022/11/01 09:02:42;;;;;;;0.10;0.00;;;;;;;17.28;100.00;98349.00;7394528;19;20018;-64
2022/11/01 09:05:08;;;;;;;0.10;0.00;;;;;;;17.39;100.00;98353.53;7395587;19;20100;-63
2022/11/01 09:07:35;;;;;;;1.48;0.55;;;;;;;17.43;100.00;98365.19;7397238;19;20747;-63
2022/11/01 09:10:01;;;;;;;0.00;0.00;;;;;;;17.46;100.00;98369.69;7394477;19;20006;-63
2022/11/01 09:12:28;;;;;;;0.05;0.05;;;;;;;17.42;100.00;98375.69;7395390;19;20010;-64
2022/11/01 09:14:54;;;;;;;2.08;0.63;;;;;;;17.25;100.00;98377.50;7394879;19;20029;-63
2022/11/01 09:17:20;;;;;;;0.30;0.30;;;;;;;17.26;100.00;98379.75;7397231;19;20010;-63
2022/11/01 09:19:46;;;;;;;0.10;0.00;;;;;;;17.36;100.00;98375.13;7394215;19;20017;-63
2022/11/01 09:22:12;;;;;;;0.10;0.05;;;;;;;17.41;100.00;98379.09;7393581;19;20018;-63
2022/11/01 09:24:39;;;;;;;2.05;0.70;;;;;;;17.37;100.00;98396.31;7392500;19;20030;-62
2022/11/01 09:27:08;;;;;;;0.10;0.10;;;;;;;17.36;100.00;98377.19;7394623;19;20018;-62
2022/11/01 09:29:34;;;;;;;0.10;0.00;;;;;;;17.31;100.00;98390.09;7393377;19;20018;-62
2022/11/01 09:32:00;;;;;;;2.35;0.35;;;;;;;17.26;100.00;98395.91;7393044;19;20017;-63
2022/11/01 09:34:27;;;;;;;0.10;0.10;;;;;;;17.36;100.00;98399.69;7392865;19;20006;-63
2022/11/01 09:36:53;;;;;;;3.78;0.30;;;;;;;17.47;100.00;98402.16;7395531;19;20038;-63
2022/11/01 09:39:20;;;;;;;6.60;0.65;;;;;;;17.76;100.00;98402.84;7394030;19;20018;-63
2022/11/01 09:41:56;;;;;;;0.30;0.28;;;;;;;17.94;100.00;98413.75;7393850;19;20018;-63
2022/11/01 09:44:35;;;;;;;0.47;0.43;;;;;;;17.98;100.00;98414.13;7392906;19;20010;-62
2022/11/01 09:47:19;;;;;;;0.13;0.13;;;;;;;18.06;100.00;98426.16;7392723;19;20006;-63
2022/11/01 09:49:49;;;;;;;0.20;0.20;;;;;;;18.22;100.00;98420.53;7392764;19;20015;-63
2022/11/01 09:52:21;;;;;;;0.00;0.00;;;;;;;18.52;100.00;98420.56;7392449;19;20025;-62
2022/11/01 09:54:47;;;;;;;0.20;0.20;;;;;;;18.62;100.00;98422.28;7391433;19;20018;-62
2022/11/01 09:57:25;;;;;;;0.85;0.20;;;;;;;18.61;100.00;98428.47;7392772;19;20033;-63
2022/11/01 10:00:12;;;;;;;0.15;0.15;;;;;;;18.56;100.00;98437.88;7392123;19;20015;-62
2022/11/01 10:02:53;;;;;;;0.20;0.10;;;;;;;18.50;100.00;98428.84;7392370;19;20351;-62
2022/11/01 10:05:49;;;;;;;0.10;0.10;;;;;;;18.30;100.00;98430.50;7393731;19;20007;-62
2022/11/01 10:08:21;;;;;;;0.95;0.45;;;;;;;18.16;100.00;98427.13;7396912;19;20044;-62
2022/11/01 10:11:10;;;;;;;8.40;0.47;;;;;;;18.01;100.00;98441.19;7394649;19;20030;-62
2022/11/01 10:13:42;;;;;;;9.52;0.70;;;;;;;17.91;100.00;98445.84;7394883;19;20494;-62
2022/11/01 10:16:37;;;;;;;0.20;0.10;;;;;;;18.04;100.00;98450.59;7392615;19;20013;-62
2022/11/01 10:19:10;;;;;;;0.45;0.35;;;;;;;18.25;100.00;98450.44;7392767;19;20007;-60
2022/11/01 10:21:43;;;;;;;0.35;0.20;;;;;;;18.21;100.00;98456.44;7391799;19;20134;-62
2022/11/01 10:24:31;;;;;;;1.48;0.10;;;;;;;18.41;100.00;98449.13;7392415;19;20148;-62
2022/11/01 10:27:11;;;;;;;0.52;0.52;;;;;;;18.57;100.00;98456.28;7393648;19;20019;-63
2022/11/01 10:30:00;;;;;;;0.52;0.25;;;;;;;18.84;100.00;98463.06;7391992;19;20011;-62
2022/11/01 10:32:49;;;;;;;0.00;0.00;;;;;;;18.68;100.00;98456.66;7391769;19;20015;-62
2022/11/01 10:35:32;;;;;;;9.23;1.35;;;;;;;18.86;100.00;98477.34;7388882;19;20014;-62
2022/11/01 10:38:22;;;;;;;0.00;0.00;;;;;;;18.84;100.00;98472.25;7394016;19;20463;-62
2022/11/01 10:41:23;;;;;;;0.10;0.00;;;;;;;18.85;100.00;98475.81;7389941;19;20007;-62
2022/11/01 10:43:53;;;;;;;2.17;0.35;;;;;;;18.88;100.00;98475.44;7388216;19;20015;-62
2022/11/01 10:46:25;;;;;;;1.75;1.00;;;;;;;18.95;100.00;98471.09;7389912;19;20345;-60
2022/11/01 10:48:57;;;;;;;0.98;0.10;;;;;;;18.98;100.00;98475.63;7390346;19;20375;-59
2022/11/01 10:51:26;;;;;;;3.40;0.30;;;;;;;18.94;100.00;98466.78;7391180;19;20010;-59
2022/11/01 10:53:58;;;;;;;0.45;0.10;;;;;;;18.75;100.00;98475.63;7390284;19;20066;-60
2022/11/01 10:56:31;;;;;;;4.55;0.20;;;;;;;18.68;100.00;98479.22;7388282;19;20435;-60
2022/11/01 10:59:04;;;;;;;3.95;0.60;;;;;;;18.68;100.00;98489.75;7390359;19;20350;-59
2022/11/01 11:01:37;;;;;;;0.00;0.00;;;;;;;18.77;100.00;98492.00;7389760;19;20074;-59
2022/11/01 11:04:08;;;;;;;4.57;0.85;;;;;;;18.65;100.00;98480.34;7388289;19;20026;-60
2022/11/01 11:06:35;;;;;;;3.33;0.38;;;;;;;18.62;100.00;98494.84;7390301;19;20022;-59
2022/11/01 11:09:04;;;;;;;0.80;0.40;;;;;;;18.55;100.00;98487.13;7388348;19;20010;-60
2022/11/01 11:11:35;;;;;;;3.30;0.40;;;;;;;18.47;100.00;98487.13;7390000;19;20010;-60
2022/11/01 11:14:05;;;;;;;0.20;0.10;;;;;;;18.41;100.00;98494.25;7389277;19;20033;-61
2022/11/01 11:16:37;;;;;;;4.18;0.77;;;;;;;18.31;100.00;98496.09;7389082;19;20019;-61
2022/11/01 11:19:06;;;;;;;0.30;0.30;;;;;;;18.23;100.00;98490.44;7390199;19;20459;-61
2022/11/01 11:21:33;;;;;;;0.50;0.30;;;;;;;18.40;100.00;98499.13;7389794;19;20010;-61
2022/11/01 11:24:01;;;;;;;2.72;1.50;;;;;;;18.49;100.00;98504.22;7387616;19;20474;-59
2022/11/01 11:26:36;;;;;;;3.17;0.77;;;;;;;18.47;100.00;98500.47;7389690;19;20014;-59
2022/11/01 11:29:03;;;;;;;5.07;0.82;;;;;;;18.45;100.00;98505.91;7389572;19;20017;-59
2022/11/01 11:31:35;;;;;;;4.38;1.10;;;;;;;18.58;100.00;98495.19;7387986;19;20040;-60
2022/11/01 11:34:26;;;;;;;6.35;0.90;;;;;;;18.62;100.00;98492.00;7389767;19;20014;-59
2022/11/01 11:36:53;;;;;;;0.65;0.32;;;;;;;18.66;100.00;98498.03;7392297;19;20011;-59
2022/11/01 11:39:28;;;;;;;9.82;1.20;;;;;;;18.55;100.00;98492.75;7388638;19;20009;-60
2022/11/01 11:42:10;;;;;;;2.53;0.93;;;;;;;18.45;100.00;98494.63;7389538;19;20011;-60